sensor_id;sensor_type;location;lat;lon;timestamp;pressure;altitude;pressure_sealevel;temperature;humidity
59274;BME280;45044;41.572;24.730;2022-11-20T00:01:15;91160.75;;;13.99;100.00
59274;BME280;45044;41.572;24.730;2022-11-20T00:03:42;91164.09;;;14.04;100.00
59274;BME280;45044;41.572;24.730;2022-11-20T00:06:11;91174.69;;;14.04;100.00
59274;BME280;45044;41.572;24.730;2022-11-20T00:08:39;91175.88;;;13.99;100.00
59274;BME280;45044;41.572;24.730;2022-11-20T00:11:11;91186.44;;;13.99;100.00
59274;BME280;45044;41.572;24.730;2022-11-20T00:13:46;91166.03;;;13.99;100.00
59274;BME280;45044;41.572;24.730;2022-11-20T00:16:16;91161.47;;;14.04;100.00
59274;BME280;45044;41.572;24.730;2022-11-20T00:18:43;91165.44;;;13.88;100.00
59274;BME280;45044;41.572;24.730;2022-11-20T00:21:13;91151.00;;;13.96;100.00
59274;BME280;45044;41.572;24.730;2022-11-20T00:23:41;91165.00;;;13.93;100.00
59274;BME280;45044;41.572;24.730;2022-11-20T00:26:11;91154.88;;;13.88;100.00
59274;BME280;45044;41.572;24.730;2022-11-20T00:28:39;91176.03;;;13.88;100.00
59274;BME280;45044;41.572;24.730;2022-11-20T00:31:09;91157.06;;;13.93;100.00
59274;BME280;45044;41.572;24.730;2022-11-20T00:33:36;91157.78;;;13.97;100.00
59274;BME280;45044;41.572;24.730;2022-11-20T00:36:08;91166.13;;;13.92;100.00
59274;BME280;45044;41.572;24.730;2022-11-20T00:38:36;91149.94;;;13.90;100.00
59274;BME280;45044;41.572;24.730;2022-11-20T00:41:07;91168.53;;;13.83;100.00
59274;BME280;45044;41.572;24.730;2022-11-20T00:43:36;91157.06;;;13.93;100.00
59274;BME280;45044;41.572;24.730;2022-11-20T00:46:08;91155.56;;;13.92;100.00
59274;BME280;45044;41.572;24.730;2022-11-20T00:48:36;91144.94;;;13.96;100.00
59274;BME280;45044;41.572;24.730;2022-11-20T00:51:03;91172.84;;;14.00;100.00
59274;BME280;45044;41.572;24.730;2022-11-20T00:53:30;91165.25;;;14.03;100.00
59274;BME280;45044;41.572;24.730;2022-11-20T00:56:02;91142.81;;;13.87;100.00
59274;BME280;45044;41.572;24.730;2022-11-20T00:58:32;91160.16;;;13.88;100.00
59274;BME280;45044;41.572;24.730;2022-11-20T01:01:05;91161.56;;;13.96;100.00
59274;BME280;45044;41.572;24.730;2022-11-20T01:03:34;91151.00;;;13.96;100.00
59274;BME280;45044;41.572;24.730;2022-11-20T01:06:04;91161.09;;;14.01;100.00
59274;BME280;45044;41.572;24.730;2022-11-20T01:08:32;91159.97;;;14.03;100.00
59274;BME280;45044;41.572;24.730;2022-11-20T01:11:05;91146.06;;;13.98;100.00
59274;BME280;45044;41.572;24.730;2022-11-20T01:13:32;91126.91;;;13.91;100.00
59274;BME280;45044;41.572;24.730;2022-11-20T01:18:45;91136.75;;;13.90;100.00
59274;BME280;45044;41.572;24.730;2022-11-20T01:21:16;91134.09;;;13.90;100.00
59274;BME280;45044;41.572;24.730;2022-11-20T01:23:44;91121.13;;;13.72;100.00
59274;BME280;45044;41.572;24.730;2022-11-20T01:26:13;91146.91;;;13.60;100.00
59274;BME280;45044;41.572;24.730;2022-11-20T01:28:41;91143.94;;;13.55;100.00
59274;BME280;45044;41.572;24.730;2022-11-20T01:31:35;91145.28;;;13.70;100.00
59274;BME280;45044;41.572;24.730;2022-11-20T01:34:08;91144.97;;;13.64;100.00
59274;BME280;45044;41.572;24.730;2022-11-20T01:36:37;91142.16;;;13.79;100.00
59274;BME280;45044;41.572;24.730;2022-11-20T01:39:06;91143.25;;;13.82;100.00
59274;BME280;45044;41.572;24.730;2022-11-20T01:41:34;91136.88;;;13.79;100.00
59274;BME280;45044;41.572;24.730;2022-11-20T01:44:22;91145.78;;;13.89;100.00
59274;BME280;45044;41.572;24.730;2022-11-20T01:47:09;91142.75;;;13.91;100.00
59274;BME280;45044;41.572;24.730;2022-11-20T01:49:55;91148.94;;;13.80;100.00
59274;BME280;45044;41.572;24.730;2022-11-20T01:52:27;91133.38;;;13.86;100.00
59274;BME280;45044;41.572;24.730;2022-11-20T01:55:13;91158.06;;;13.75;100.00
59274;BME280;45044;41.572;24.730;2022-11-20T01:57:41;91161.81;;;13.74;100.00
59274;BME280;45044;41.572;24.730;2022-11-20T02:00:12;91148.97;;;13.76;100.00
59274;BME280;45044;41.572;24.730;2022-11-20T02:02:44;91151.25;;;13.74;100.00
59274;BME280;45044;41.572;24.730;2022-11-20T02:05:34;91150.50;;;13.77;100.00
59274;BME280;45044;41.572;24.730;2022-11-20T02:08:03;91151.97;;;13.79;100.00
59274;BME280;45044;41.572;24.730;2022-11-20T02:10:31;91134.97;;;13.80;100.00
59274;BME280;45044;41.572;24.730;2022-11-20T02:12:58;91122.13;;;13.82;100.00
59274;BME280;45044;41.572;24.730;2022-11-20T02:15:44;91137.78;;;13.65;100.00
59274;BME280;45044;41.572;24.730;2022-11-20T02:18:14;91138.59;;;13.62;100.00
59274;BME280;45044;41.572;24.730;2022-11-20T02:20:44;91130.25;;;13.63;100.00
59274;BME280;45044;41.572;24.730;2022-11-20T02:23:31;91129.88;;;13.65;100.00
59274;BME280;45044;41.572;24.730;2022-11-20T02:26:02;91117.81;;;13.64;100.00
59274;BME280;45044;41.572;24.730;2022-11-20T02:28:30;91114.56;;;13.52;100.00
59274;BME280;45044;41.572;24.730;2022-11-20T02:30:57;91125.88;;;13.49;100.00
59274;BME280;45044;41.572;24.730;2022-11-20T02:33:24;91120.84;;;13.62;100.00
59274;BME280;45044;41.572;24.730;2022-11-20T02:35:58;91128.75;;;13.66;100.00
59274;BME280;45044;41.572;24.730;2022-11-20T02:38:25;91128.06;;;13.58;100.00
59274;BME280;45044;41.572;24.730;2022-11-20T02:40:52;91133.72;;;13.60;100.00
59274;BME280;45044;41.572;24.730;2022-11-20T02:43:22;91118.25;;;13.59;100.00
59274;BME280;45044;41.572;24.730;2022-11-20T02:45:49;91113.03;;;13.51;100.00
59274;BME280;45044;41.572;24.730;2022-11-20T02:48:16;91113.78;;;13.52;100.00
59274;BME280;45044;41.572;24.730;2022-11-20T02:50:43;91113.03;;;13.51;100.00
59274;BME280;45044;41.572;24.730;2022-11-20T02:53:09;91100.59;;;13.52;100.00
59274;BME280;45044;41.572;24.730;2022-11-20T02:55:36;91094.09;;;13.25;100.00
59274;BME280;45044;41.572;24.730;2022-11-20T02:58:03;91119.84;;;13.52;100.00
59274;BME280;45044;41.572;24.730;2022-11-20T03:00:29;91109.69;;;13.47;100.00
59274;BME280;45044;41.572;24.730;2022-11-20T03:02:57;91120.97;;;13.51;100.00
59274;BME280;45044;41.572;24.730;2022-11-20T03:05:23;91110.44;;;13.48;100.00
59274;BME280;45044;41.572;24.730;2022-11-20T03:07:54;91102.47;;;13.51;100.00
59274;BME280;45044;41.572;24.730;2022-11-20T03:10:21;91103.22;;;13.56;100.00
59274;BME280;45044;41.572;24.730;2022-11-20T03:12:52;91091.19;;;13.47;100.00
59274;BME280;45044;41.572;24.730;2022-11-20T03:15:19;91095.69;;;13.50;100.00
59274;BME280;45044;41.572;24.730;2022-11-20T03:17:46;91094.69;;;13.40;100.00
59274;BME280;45044;41.572;24.730;2022-11-20T03:20:13;91095.88;;;13.36;100.00
59274;BME280;45044;41.572;24.730;2022-11-20T03:22:39;91101.84;;;13.40;100.00
59274;BME280;45044;41.572;24.730;2022-11-20T03:25:06;91094.38;;;13.35;100.00
59274;BME280;45044;41.572;24.730;2022-11-20T03:27:34;91094.53;;;13.20;100.00
59274;BME280;45044;41.572;24.730;2022-11-20T03:30:01;91083.56;;;13.22;100.00
59274;BME280;45044;41.572;24.730;2022-11-20T03:32:27;91084.22;;;13.33;100.00
59274;BME280;45044;41.572;24.730;2022-11-20T03:34:54;91091.41;;;13.29;100.00
59274;BME280;45044;41.572;24.730;2022-11-20T03:37:21;91092.22;;;13.26;100.00
59274;BME280;45044;41.572;24.730;2022-11-20T03:39:47;91093.13;;;13.12;100.00
59274;BME280;45044;41.572;24.730;2022-11-20T03:42:14;91092.06;;;13.05;100.00
59274;BME280;45044;41.572;24.730;2022-11-20T03:44:59;91087.22;;;13.00;100.00
59274;BME280;45044;41.572;24.730;2022-11-20T03:47:26;91086.84;;;12.98;100.00
59274;BME280;45044;41.572;24.730;2022-11-20T03:49:53;91083.50;;;12.94;100.00
59274;BME280;45044;41.572;24.730;2022-11-20T03:52:20;91076.84;;;12.82;100.00
59274;BME280;45044;41.572;24.730;2022-11-20T03:54:46;91084.50;;;12.69;100.00
59274;BME280;45044;41.572;24.730;2022-11-20T03:57:13;91065.50;;;12.85;100.00
59274;BME280;45044;41.572;24.730;2022-11-20T03:59:40;91057.97;;;12.84;100.00
59274;BME280;45044;41.572;24.730;2022-11-20T04:02:06;91061.06;;;12.78;100.00
59274;BME280;45044;41.572;24.730;2022-11-20T04:04:33;91058.91;;;12.66;100.00
59274;BME280;45044;41.572;24.730;2022-11-20T04:07:00;91079.88;;;12.80;100.00
59274;BME280;45044;41.572;24.730;2022-11-20T04:09:27;91071.59;;;12.78;100.00
59274;BME280;45044;41.572;24.730;2022-11-20T04:11:54;91077.38;;;12.66;100.00
59274;BME280;45044;41.572;24.730;2022-11-20T04:14:21;91087.47;;;12.75;100.00
59274;BME280;45044;41.572;24.730;2022-11-20T04:16:47;91072.41;;;12.75;100.00
59274;BME280;45044;41.572;24.730;2022-11-20T04:19:15;91089.56;;;12.91;100.00
59274;BME280;45044;41.572;24.730;2022-11-20T04:21:43;91101.13;;;13.04;100.00
59274;BME280;45044;41.572;24.730;2022-11-20T04:24:11;91095.50;;;13.02;100.00
59274;BME280;45044;41.572;24.730;2022-11-20T04:26:38;91084.84;;;13.10;100.00
59274;BME280;45044;41.572;24.730;2022-11-20T04:29:06;91094.13;;;13.22;100.00
59274;BME280;45044;41.572;24.730;2022-11-20T04:31:35;91093.50;;;13.14;100.00
59274;BME280;45044;41.572;24.730;2022-11-20T04:34:05;91094.63;;;13.13;100.00
59274;BME280;45044;41.572;24.730;2022-11-20T04:36:32;91085.97;;;13.09;100.00
59274;BME280;45044;41.572;24.730;2022-11-20T04:39:02;91081.34;;;13.20;100.00
59274;BME280;45044;41.572;24.730;2022-11-20T04:41:35;91089.34;;;13.13;100.00
59274;BME280;45044;41.572;24.730;2022-11-20T04:44:04;91081.75;;;13.18;100.00
59274;BME280;45044;41.572;24.730;2022-11-20T04:46:43;91072.72;;;13.16;100.00
59274;BME280;45044;41.572;24.730;2022-11-20T04:49:10;91070.44;;;13.18;100.00
59274;BME280;45044;41.572;24.730;2022-11-20T04:51:37;91056.88;;;13.16;100.00
59274;BME280;45044;41.572;24.730;2022-11-20T04:54:04;91064.78;;;13.16;100.00
59274;BME280;45044;41.572;24.730;2022-11-20T04:56:31;91066.75;;;13.12;100.00
59274;BME280;45044;41.572;24.730;2022-11-20T04:59:01;91071.94;;;13.19;100.00
59274;BME280;45044;41.572;24.730;2022-11-20T05:01:29;91074.84;;;13.28;100.00
59274;BME280;45044;41.572;24.730;2022-11-20T05:03:55;91057.50;;;13.27;100.00
59274;BME280;45044;41.572;24.730;2022-11-20T05:06:22;91066.97;;;13.25;100.00
59274;BME280;45044;41.572;24.730;2022-11-20T05:08:49;91074.09;;;13.28;100.00
59274;BME280;45044;41.572;24.730;2022-11-20T05:11:19;91070.03;;;13.20;100.00
59274;BME280;45044;41.572;24.730;2022-11-20T05:13:47;91077.19;;;13.23;100.00
59274;BME280;45044;41.572;24.730;2022-11-20T05:16:24;91067.69;;;13.25;100.00
59274;BME280;45044;41.572;24.730;2022-11-20T05:18:53;91073.78;;;13.22;100.00
59274;BME280;45044;41.572;24.730;2022-11-20T05:21:21;91067.25;;;13.30;100.00
59274;BME280;45044;41.572;24.730;2022-11-20T05:23:48;91070.25;;;13.33;100.00
59274;BME280;45044;41.572;24.730;2022-11-20T05:26:20;91065.69;;;13.37;100.00
59274;BME280;45044;41.572;24.730;2022-11-20T05:28:51;91052.84;;;13.39;100.00
59274;BME280;45044;41.572;24.730;2022-11-20T05:31:20;91061.94;;;13.34;100.00
59274;BME280;45044;41.572;24.730;2022-11-20T05:33:54;91025.25;;;13.12;100.00
59274;BME280;45044;41.572;24.730;2022-11-20T05:36:21;91051.78;;;13.33;100.00
59274;BME280;45044;41.572;24.730;2022-11-20T05:38:47;91058.94;;;13.36;100.00
59274;BME280;45044;41.572;24.730;2022-11-20T05:41:19;91046.81;;;13.38;100.00
59274;BME280;45044;41.572;24.730;2022-11-20T05:43:47;91057.00;;;13.36;100.00
59274;BME280;45044;41.572;24.730;2022-11-20T05:46:16;91058.13;;;13.39;100.00
59274;BME280;45044;41.572;24.730;2022-11-20T05:48:46;91052.84;;;13.39;100.00
59274;BME280;45044;41.572;24.730;2022-11-20T05:51:15;91066.44;;;13.37;100.00
59274;BME280;45044;41.572;24.730;2022-11-20T05:53:43;91049.13;;;13.33;100.00
59274;BME280;45044;41.572;24.730;2022-11-20T05:56:19;91046.94;;;13.27;100.00
59274;BME280;45044;41.572;24.730;2022-11-20T05:58:46;91070.13;;;13.44;100.00
59274;BME280;45044;41.572;24.730;2022-11-20T06:01:19;91071.69;;;13.41;100.00
59274;BME280;45044;41.572;24.730;2022-11-20T06:03:46;91082.56;;;13.43;100.00
59274;BME280;45044;41.572;24.730;2022-11-20T06:06:15;91088.16;;;13.49;100.00
59274;BME280;45044;41.572;24.730;2022-11-20T06:08:42;91093.78;;;13.55;100.00
59274;BME280;45044;41.572;24.730;2022-11-20T06:11:11;91092.00;;;13.44;100.00
59274;BME280;45044;41.572;24.730;2022-11-20T06:13:39;91090.13;;;13.45;100.00
59274;BME280;45044;41.572;24.730;2022-11-20T06:16:08;91092.31;;;13.53;100.00
59274;BME280;45044;41.572;24.730;2022-11-20T06:18:36;91095.69;;;13.50;100.00
59274;BME280;45044;41.572;24.730;2022-11-20T06:21:05;91092.50;;;13.35;100.00
59274;BME280;45044;41.572;24.730;2022-11-20T06:23:34;91108.88;;;13.50;100.00
59274;BME280;45044;41.572;24.730;2022-11-20T06:26:02;91103.28;;;13.48;100.00
59274;BME280;45044;41.572;24.730;2022-11-20T06:28:30;91094.19;;;13.49;100.00
59274;BME280;45044;41.572;24.730;2022-11-20T06:30:57;91103.72;;;13.39;100.00
59274;BME280;45044;41.572;24.730;2022-11-20T06:33:24;91111.13;;;13.56;100.00
59274;BME280;45044;41.572;24.730;2022-11-20T06:35:51;91092.72;;;13.48;100.00
59274;BME280;45044;41.572;24.730;2022-11-20T06:38:26;91097.94;;;13.56;100.00
59274;BME280;45044;41.572;24.730;2022-11-20T06:40:53;91099.09;;;13.51;100.00
59274;BME280;45044;41.572;24.730;2022-11-20T06:43:21;91102.41;;;13.59;100.00
59274;BME280;45044;41.572;24.730;2022-11-20T06:45:55;91100.84;;;13.61;100.00
59274;BME280;45044;41.572;24.730;2022-11-20T06:48:23;91100.91;;;13.58;100.00
59274;BME280;45044;41.572;24.730;2022-11-20T06:50:50;91102.84;;;13.53;100.00
59274;BME280;45044;41.572;24.730;2022-11-20T06:53:16;91094.09;;;13.60;100.00
59274;BME280;45044;41.572;24.730;2022-11-20T06:56:08;91092.28;;;13.85;100.00
59274;BME280;45044;41.572;24.730;2022-11-20T06:59:18;91096.75;;;13.88;100.00
59274;BME280;45044;41.572;24.730;2022-11-20T07:02:28;91098.53;;;13.67;100.00
59274;BME280;45044;41.572;24.730;2022-11-20T07:04:58;91107.56;;;13.70;100.00
59274;BME280;45044;41.572;24.730;2022-11-20T07:07:25;91112.69;;;13.81;100.00
59274;BME280;45044;41.572;24.730;2022-11-20T07:09:52;91103.81;;;13.67;100.00
59274;BME280;45044;41.572;24.730;2022-11-20T07:12:19;91104.53;;;13.71;100.00
59274;BME280;45044;41.572;24.730;2022-11-20T07:14:45;91103.72;;;13.74;100.00
59274;BME280;45044;41.572;24.730;2022-11-20T07:17:12;91100.41;;;13.70;100.00
59274;BME280;45044;41.572;24.730;2022-11-20T07:19:39;91094.72;;;13.72;100.00
59274;BME280;45044;41.572;24.730;2022-11-20T07:22:06;91094.75;;;13.68;100.00
59274;BME280;45044;41.572;24.730;2022-11-20T07:24:32;91090.91;;;13.73;100.00
59274;BME280;45044;41.572;24.730;2022-11-20T07:26:59;91089.28;;;13.83;100.00
59274;BME280;45044;41.572;24.730;2022-11-20T07:29:26;91080.34;;;14.00;100.00
59274;BME280;45044;41.572;24.730;2022-11-20T07:32:36;91077.91;;;13.86;100.00
59274;BME280;45044;41.572;24.730;2022-11-20T07:35:46;91079.44;;;14.11;100.00
59274;BME280;45044;41.572;24.730;2022-11-20T07:38:56;91078.50;;;13.97;100.00
59274;BME280;45044;41.572;24.730;2022-11-20T07:55:48;91074.59;;;14.06;100.00
59274;BME280;45044;41.572;24.730;2022-11-20T07:58:33;91070.81;;;14.07;100.00
59274;BME280;45044;41.572;24.730;2022-11-20T08:01:19;91085.19;;;14.06;100.00
59274;BME280;45044;41.572;24.730;2022-11-20T08:03:46;91065.34;;;14.18;100.00
59274;BME280;45044;41.572;24.730;2022-11-20T08:06:13;91068.28;;;13.99;100.00
59274;BME280;45044;41.572;24.730;2022-11-20T08:08:41;91068.88;;;14.11;100.00
59274;BME280;45044;41.572;24.730;2022-11-20T08:11:08;91062.94;;;14.27;100.00
59274;BME280;45044;41.572;24.730;2022-11-20T08:13:54;91059.50;;;14.06;100.00
59274;BME280;45044;41.572;24.730;2022-11-20T08:16:40;91051.47;;;14.37;100.00
59274;BME280;45044;41.572;24.730;2022-11-20T08:19:07;91039.34;;;14.40;100.00
59274;BME280;45044;41.572;24.730;2022-11-20T08:21:34;91039.91;;;14.52;100.00
59274;BME280;45044;41.572;24.730;2022-11-20T08:24:04;91036.03;;;14.56;100.00
59274;BME280;45044;41.572;24.730;2022-11-20T08:26:31;91043.03;;;14.46;100.00
59274;BME280;45044;41.572;24.730;2022-11-20T08:29:05;91056.00;;;14.61;100.00
59274;BME280;45044;41.572;24.730;2022-11-20T08:31:32;91067.72;;;14.60;100.00
59274;BME280;45044;41.572;24.730;2022-11-20T08:33:59;91074.78;;;14.67;100.00
59274;BME280;45044;41.572;24.730;2022-11-20T08:36:25;91093.25;;;14.22;100.00
59274;BME280;45044;41.572;24.730;2022-11-20T08:38:54;91073.94;;;14.25;100.00
59274;BME280;45044;41.572;24.730;2022-11-20T08:41:22;91058.31;;;14.35;100.00
59274;BME280;45044;41.572;24.730;2022-11-20T08:44:06;91068.75;;;14.42;100.00
59274;BME280;45044;41.572;24.730;2022-11-20T08:46:37;91047.66;;;14.39;100.00
59274;BME280;45044;41.572;24.730;2022-11-20T08:49:06;91080.16;;;14.39;100.00
59274;BME280;45044;41.572;24.730;2022-11-20T08:51:33;91074.63;;;14.54;100.00
59274;BME280;45044;41.572;24.730;2022-11-20T08:54:00;91059.66;;;14.67;100.00
59274;BME280;45044;41.572;24.730;2022-11-20T08:56:27;91042.25;;;14.70;100.00
59274;BME280;45044;41.572;24.730;2022-11-20T08:58:54;91060.00;;;14.69;100.00
59274;BME280;45044;41.572;24.730;2022-11-20T09:01:41;91051.50;;;14.82;100.00
59274;BME280;45044;41.572;24.730;2022-11-20T09:04:08;91047.06;;;14.75;100.00
59274;BME280;45044;41.572;24.730;2022-11-20T09:06:34;91049.41;;;14.69;100.00
59274;BME280;45044;41.572;24.730;2022-11-20T09:09:01;91028.38;;;14.62;100.00
59274;BME280;45044;41.572;24.730;2022-11-20T09:11:32;91025.19;;;14.71;100.00
59274;BME280;45044;41.572;24.730;2022-11-20T09:13:59;91044.72;;;14.57;100.00
59274;BME280;45044;41.572;24.730;2022-11-20T09:16:26;91030.34;;;14.58;100.00
59274;BME280;45044;41.572;24.730;2022-11-20T09:18:53;91035.84;;;14.67;100.00
59274;BME280;45044;41.572;24.730;2022-11-20T09:21:47;91030.75;;;14.56;100.00
59274;BME280;45044;41.572;24.730;2022-11-20T09:24:14;91028.06;;;14.36;100.00
59274;BME280;45044;41.572;24.730;2022-11-20T09:26:40;91033.91;;;14.47;100.00
59274;BME280;45044;41.572;24.730;2022-11-20T09:29:07;91044.69;;;14.36;100.00
59274;BME280;45044;41.572;24.730;2022-11-20T09:31:34;91053.19;;;14.24;100.00
59274;BME280;45044;41.572;24.730;2022-11-20T09:34:00;91039.44;;;14.33;100.00
59274;BME280;45044;41.572;24.730;2022-11-20T09:36:27;91049.03;;;14.47;100.00
59274;BME280;45044;41.572;24.730;2022-11-20T09:38:54;91024.69;;;14.56;100.00
59274;BME280;45044;41.572;24.730;2022-11-20T09:41:48;91029.22;;;14.79;100.00
59274;BME280;45044;41.572;24.730;2022-11-20T09:44:31;91035.09;;;15.11;100.00
59274;BME280;45044;41.572;24.730;2022-11-20T09:47:13;91021.63;;;15.02;100.00
59274;BME280;45044;41.572;24.730;2022-11-20T09:55:31;91033.31;;;15.04;100.00
59274;BME280;45044;41.572;24.730;2022-11-20T09:57:59;91032.13;;;15.46;100.00
59274;BME280;45044;41.572;24.730;2022-11-20T10:00:27;91031.22;;;15.53;100.00
59274;BME280;45044;41.572;24.730;2022-11-20T10:03:14;91007.41;;;16.36;100.00
59274;BME280;45044;41.572;24.730;2022-11-20T10:05:53;91010.00;;;16.07;100.00
59274;BME280;45044;41.572;24.730;2022-11-20T10:08:33;91015.38;;;16.20;100.00
59274;BME280;45044;41.572;24.730;2022-11-20T10:11:28;91012.47;;;15.97;100.00
59274;BME280;45044;41.572;24.730;2022-11-20T10:14:13;91020.22;;;15.54;100.00
59274;BME280;45044;41.572;24.730;2022-11-20T10:20:00;91000.44;;;15.59;100.00
59274;BME280;45044;41.572;24.730;2022-11-20T10:25:14;90992.06;;;15.44;100.00
59274;BME280;45044;41.572;24.730;2022-11-20T10:30:45;91008.84;;;15.37;100.00
59274;BME280;45044;41.572;24.730;2022-11-20T10:33:19;90996.25;;;15.41;100.00
59274;BME280;45044;41.572;24.730;2022-11-20T10:35:52;91011.50;;;15.37;100.00
59274;BME280;45044;41.572;24.730;2022-11-20T10:38:21;91007.88;;;15.48;100.00
59274;BME280;45044;41.572;24.730;2022-11-20T10:40:55;91004.09;;;15.65;100.00
59274;BME280;45044;41.572;24.730;2022-11-20T10:43:48;90987.38;;;15.52;100.00
59274;BME280;45044;41.572;24.730;2022-11-20T10:46:19;90981.03;;;16.46;100.00
59274;BME280;45044;41.572;24.730;2022-11-20T10:48:49;90961.38;;;16.30;100.00
59274;BME280;45044;41.572;24.730;2022-11-20T10:51:40;90970.31;;;16.66;97.40
59274;BME280;45044;41.572;24.730;2022-11-20T10:54:23;90952.78;;;16.69;97.73
59274;BME280;45044;41.572;24.730;2022-11-20T10:57:18;90942.03;;;17.02;99.10
59274;BME280;45044;41.572;24.730;2022-11-20T11:00:01;90933.63;;;16.91;99.18
59274;BME280;45044;41.572;24.730;2022-11-20T11:02:46;90907.72;;;16.82;94.24
59274;BME280;45044;41.572;24.730;2022-11-20T11:05:33;90922.47;;;16.96;95.41
59274;BME280;45044;41.572;24.730;2022-11-20T11:08:05;90926.91;;;17.42;89.96
59274;BME280;45044;41.572;24.730;2022-11-20T11:10:57;90928.25;;;18.57;83.64
59274;BME280;45044;41.572;24.730;2022-11-20T11:13:27;90937.59;;;18.39;79.08
59274;BME280;45044;41.572;24.730;2022-11-20T11:15:55;90939.28;;;17.97;79.93
59274;BME280;45044;41.572;24.730;2022-11-20T11:18:30;90943.25;;;17.14;85.82
59274;BME280;45044;41.572;24.730;2022-11-20T11:21:02;90946.91;;;16.91;91.20
59274;BME280;45044;41.572;24.730;2022-11-20T11:25:58;90923.81;;;17.30;86.50
59274;BME280;45044;41.572;24.730;2022-11-20T11:28:26;90933.13;;;17.74;86.16
59274;BME280;45044;41.572;24.730;2022-11-20T11:30:54;90929.66;;;17.25;86.88
59274;BME280;45044;41.572;24.730;2022-11-20T11:33:28;90913.25;;;17.00;88.30
59274;BME280;45044;41.572;24.730;2022-11-20T11:35:59;90922.53;;;16.36;91.24
59274;BME280;45044;41.572;24.730;2022-11-20T11:38:43;90931.22;;;16.67;91.37
59274;BME280;45044;41.572;24.730;2022-11-20T11:41:20;90922.88;;;16.81;89.84
59274;BME280;45044;41.572;24.730;2022-11-20T11:43:53;90930.53;;;16.20;91.65
59274;BME280;45044;41.572;24.730;2022-11-20T11:46:44;90918.88;;;16.17;94.31
59274;BME280;45044;41.572;24.730;2022-11-20T11:49:19;90929.50;;;16.00;96.92
59274;BME280;45044;41.572;24.730;2022-11-20T11:54:26;90917.78;;;16.14;99.62
59274;BME280;45044;41.572;24.730;2022-11-20T11:56:55;90928.97;;;16.22;94.33
59274;BME280;45044;41.572;24.730;2022-11-20T12:02:29;90902.19;;;16.33;95.79
59274;BME280;45044;41.572;24.730;2022-11-20T12:13:06;90883.00;;;16.12;95.14
59274;BME280;45044;41.572;24.730;2022-11-20T12:15:42;90902.31;;;16.13;94.86
59274;BME280;45044;41.572;24.730;2022-11-20T12:18:16;90901.13;;;16.14;97.22
59274;BME280;45044;41.572;24.730;2022-11-20T12:26:49;90927.75;;;15.77;100.00
59274;BME280;45044;41.572;24.730;2022-11-20T12:43:31;90914.34;;;15.67;100.00
59274;BME280;45044;41.572;24.730;2022-11-20T13:02:35;90927.94;;;14.99;100.00
59274;BME280;45044;41.572;24.730;2022-11-20T13:08:27;90930.97;;;14.97;100.00
59274;BME280;45044;41.572;24.730;2022-11-20T13:19:35;90907.41;;;14.66;100.00
59274;BME280;45044;41.572;24.730;2022-11-20T13:22:02;90909.00;;;14.60;100.00
59274;BME280;45044;41.572;24.730;2022-11-20T13:24:31;90903.78;;;14.56;100.00
59274;BME280;45044;41.572;24.730;2022-11-20T13:27:02;90909.34;;;14.62;100.00
59274;BME280;45044;41.572;24.730;2022-11-20T13:29:29;90923.28;;;14.66;100.00
59274;BME280;45044;41.572;24.730;2022-11-20T13:34:36;90907.75;;;14.48;100.00
59274;BME280;45044;41.572;24.730;2022-11-20T13:37:03;90888.88;;;14.46;100.00
59274;BME280;45044;41.572;24.730;2022-11-20T13:39:34;90901.00;;;14.43;100.00
59274;BME280;45044;41.572;24.730;2022-11-20T13:44:39;90894.44;;;14.31;100.00
59274;BME280;45044;41.572;24.730;2022-11-20T13:47:23;90887.38;;;14.04;100.00
59274;BME280;45044;41.572;24.730;2022-11-20T13:49:51;90922.44;;;14.29;100.00
59274;BME280;45044;41.572;24.730;2022-11-20T13:52:42;90913.03;;;14.28;100.00
59274;BME280;45044;41.572;24.730;2022-11-20T13:55:40;90910.16;;;14.18;100.00
59274;BME280;45044;41.572;24.730;2022-11-20T14:01:28;90915.91;;;14.13;100.00
59274;BME280;45044;41.572;24.730;2022-11-20T14:03:58;90911.31;;;14.17;100.00
59274;BME280;45044;41.572;24.730;2022-11-20T14:06:34;90913.75;;;14.08;100.00
59274;BME280;45044;41.572;24.730;2022-11-20T14:09:05;90924.78;;;13.79;100.00
59274;BME280;45044;41.572;24.730;2022-11-20T14:11:31;90908.94;;;13.79;100.00
59274;BME280;45044;41.572;24.730;2022-11-20T14:14:13;90915.22;;;13.64;100.00
59274;BME280;45044;41.572;24.730;2022-11-20T14:16:41;90898.31;;;13.82;100.00
59274;BME280;45044;41.572;24.730;2022-11-20T14:21:43;90899.06;;;13.83;100.00
59274;BME280;45044;41.572;24.730;2022-11-20T14:24:11;90926.84;;;13.67;100.00
59274;BME280;45044;41.572;24.730;2022-11-20T14:26:45;90933.88;;;13.77;100.00
59274;BME280;45044;41.572;24.730;2022-11-20T14:29:17;90937.13;;;13.61;100.00
59274;BME280;45044;41.572;24.730;2022-11-20T14:31:45;90939.28;;;13.70;100.00
59274;BME280;45044;41.572;24.730;2022-11-20T14:34:23;90941.69;;;13.61;100.00
59274;BME280;45044;41.572;24.730;2022-11-20T14:36:55;90937.94;;;13.58;100.00
59274;BME280;45044;41.572;24.730;2022-11-20T14:39:41;90946.44;;;13.42;100.00
59274;BME280;45044;41.572;24.730;2022-11-20T14:42:26;90949.19;;;13.35;100.00
59274;BME280;45044;41.572;24.730;2022-11-20T14:44:58;90962.78;;;13.33;100.00
59274;BME280;45044;41.572;24.730;2022-11-20T14:47:28;90973.97;;;13.13;100.00
59274;BME280;45044;41.572;24.730;2022-11-20T14:49:57;90976.25;;;12.80;100.00
59274;BME280;45044;41.572;24.730;2022-11-20T14:52:27;90972.22;;;12.72;100.00